Time;durP1;ratioP1;P1;durP2;ratioP2;P2;SDS_P1;SDS_P2;PMS_P1;PMS_P2;Temp;Humidity;BMP_temperature;BMP_pressure;BME280_temperature;BME280_humidity;BME280_pressure;Samples;Min_cycle;Max_cycle;Signal;HPM_P1;HPM_P2
2022/04/13 00:01:58;;;;;;;9.68;3.58;;;;;;;14.60;59.45;101041.47;5011858;28;20249;-73
2022/04/13 00:04:24;;;;;;;11.13;3.60;;;;;;;14.55;59.80;101035.75;5011893;28;20061;-73
2022/04/13 00:06:49;;;;;;;7.70;3.58;;;;;;;14.56;60.83;101040.06;5011524;28;20025;-73
2022/04/13 00:09:19;;;;;;;9.55;3.80;;;;;;;14.47;60.07;101046.16;5012016;28;20026;-73
2022/04/13 00:11:45;;;;;;;10.77;3.70;;;;;;;14.42;60.70;101049.19;4997334;28;20049;-73
2022/04/13 00:14:10;;;;;;;11.75;3.72;;;;;;;14.38;60.22;101039.81;5011253;28;20122;-73
2022/04/13 00:16:37;;;;;;;12.30;4.03;;;;;;;14.36;60.72;101052.34;5012190;28;20045;-73
2022/04/13 00:19:02;;;;;;;8.80;3.42;;;;;;;14.33;61.40;101052.59;5012295;28;20038;-73
2022/04/13 00:21:27;;;;;;;10.18;3.30;;;;;;;14.29;61.56;101052.03;5011087;28;20103;-73
2022/04/13 00:23:56;;;;;;;14.00;3.90;;;;;;;14.23;61.41;101057.03;5011982;28;20033;-73
2022/04/13 00:26:25;;;;;;;12.60;4.15;;;;;;;14.19;61.29;101053.81;5011594;28;20026;-73
2022/04/13 00:28:51;;;;;;;10.13;3.67;;;;;;;14.16;61.74;101051.44;5010912;28;20025;-73
2022/04/13 00:31:16;;;;;;;8.38;4.10;;;;;;;14.15;61.58;101060.34;5011087;28;20101;-74
2022/04/13 00:33:42;;;;;;;12.43;3.88;;;;;;;14.14;61.55;101063.13;5010669;28;20105;-73
2022/04/13 00:36:11;;;;;;;11.40;4.15;;;;;;;14.05;61.62;101049.69;5009791;28;20026;-74
2022/04/13 00:38:37;;;;;;;13.00;4.00;;;;;;;14.07;61.87;101068.09;5010243;28;20033;-73
2022/04/13 00:41:06;;;;;;;9.57;3.75;;;;;;;14.07;62.26;101071.56;5010630;28;20482;-73
2022/04/13 00:43:31;;;;;;;7.57;3.78;;;;;;;14.03;62.26;101067.53;5010783;28;20030;-73
2022/04/13 00:45:56;;;;;;;13.40;3.92;;;;;;;14.02;62.51;101070.28;5010583;28;20029;-73
2022/04/13 00:48:31;;;;;;;13.65;4.20;;;;;;;14.02;62.50;101080.88;5010955;28;20096;-73
2022/04/13 00:50:58;;;;;;;15.77;4.30;;;;;;;13.96;62.85;101087.50;5010696;28;20080;-73
2022/04/13 00:53:24;;;;;;;12.00;3.60;;;;;;;13.91;63.21;101084.41;4993307;28;20040;-73
2022/04/13 00:55:53;;;;;;;8.77;3.50;;;;;;;13.88;63.25;101089.13;5011756;28;20579;-73
2022/04/13 00:58:22;;;;;;;9.55;4.07;;;;;;;13.81;63.57;101078.22;4998376;28;20046;-73
2022/04/13 01:00:48;;;;;;;11.02;4.07;;;;;;;13.79;63.80;101088.94;5011779;28;20042;-73
2022/04/13 01:03:19;;;;;;;9.23;3.60;;;;;;;13.75;63.82;101100.72;4992611;28;20497;-73
2022/04/13 01:05:48;;;;;;;14.10;4.10;;;;;;;13.72;64.47;101094.84;5011380;28;20112;-73
2022/04/13 01:08:15;;;;;;;10.90;4.18;;;;;;;13.69;64.18;101095.94;4993683;28;20025;-73
2022/04/13 01:10:45;;;;;;;11.77;4.60;;;;;;;13.68;64.26;101104.84;5010409;28;20091;-73
2022/04/13 01:13:15;;;;;;;9.93;4.43;;;;;;;13.65;64.73;101107.75;5011039;28;20472;-73
2022/04/13 01:15:41;;;;;;;11.77;4.50;;;;;;;13.65;65.04;101114.84;5010965;28;20478;-73
2022/04/13 01:18:11;;;;;;;12.85;5.20;;;;;;;13.61;65.01;101116.91;5010303;28;20084;-73
2022/04/13 01:20:39;;;;;;;9.55;4.88;;;;;;;13.62;65.03;101121.22;4993427;28;20033;-73
2022/04/13 01:23:16;;;;;;;12.60;5.88;;;;;;;13.65;65.33;101125.44;5008189;28;20124;-74
2022/04/13 01:25:52;;;;;;;11.93;5.93;;;;;;;13.61;65.33;101130.13;4992663;28;20037;-74
2022/04/13 01:28:27;;;;;;;16.33;5.95;;;;;;;13.55;66.12;101125.31;5009799;28;20031;-74
2022/04/13 01:30:53;;;;;;;14.38;7.10;;;;;;;13.59;66.62;101132.03;4992250;28;20041;-74
2022/04/13 01:33:18;;;;;;;12.38;5.82;;;;;;;13.58;66.04;101138.28;5009149;28;20025;-74
2022/04/13 01:35:43;;;;;;;18.30;6.90;;;;;;;13.57;67.13;101131.31;5009638;28;20542;-74
2022/04/13 01:38:12;;;;;;;10.15;6.13;;;;;;;13.53;67.41;101129.06;4991580;28;20045;-74
2022/04/13 01:40:38;;;;;;;16.15;6.60;;;;;;;13.55;67.44;101143.81;5009639;28;20026;-74
2022/04/13 01:43:06;;;;;;;12.60;6.55;;;;;;;13.54;67.22;101150.06;5009203;28;20474;-74
2022/04/13 01:45:32;;;;;;;11.60;6.68;;;;;;;13.55;67.48;101149.13;5008769;28;20092;-74
2022/04/13 01:47:57;;;;;;;14.10;7.07;;;;;;;13.51;67.97;101149.50;5009509;28;20026;-74
2022/04/13 01:50:23;;;;;;;14.20;7.53;;;;;;;13.53;68.37;101152.84;5009416;28;20331;-74
2022/04/13 01:52:49;;;;;;;12.70;6.57;;;;;;;13.50;68.71;101159.22;5008442;28;20032;-74
2022/04/13 01:55:15;;;;;;;18.48;7.03;;;;;;;13.45;68.54;101150.81;5009165;28;20033;-74
2022/04/13 01:57:42;;;;;;;14.35;7.38;;;;;;;13.48;68.71;101161.16;5009112;28;20048;-74
2022/04/13 02:00:10;;;;;;;11.48;6.60;;;;;;;13.44;69.47;101154.44;4992048;28;20037;-74
2022/04/13 02:02:36;;;;;;;12.60;7.25;;;;;;;13.44;69.02;101163.22;4993735;28;20034;-74
2022/04/13 02:05:06;;;;;;;14.77;7.45;;;;;;;13.41;69.58;101165.25;4996328;28;20474;-75
2022/04/13 02:07:32;;;;;;;14.80;7.22;;;;;;;13.38;69.45;101160.22;5009158;28;20025;-74
2022/04/13 02:10:05;;;;;;;15.02;7.50;;;;;;;13.35;69.83;101165.75;5010329;28;20354;-74
2022/04/13 02:12:32;;;;;;;11.07;7.05;;;;;;;13.33;69.94;101170.31;4993109;28;20022;-74
2022/04/13 02:14:57;;;;;;;14.82;7.07;;;;;;;13.30;70.29;101173.22;5001195;28;20026;-74
2022/04/13 02:17:23;;;;;;;14.88;6.97;;;;;;;13.31;70.12;101172.25;4990631;28;20246;-74
2022/04/13 02:19:48;;;;;;;14.00;7.22;;;;;;;13.30;70.17;101173.22;4990667;28;20038;-74
2022/04/13 02:22:15;;;;;;;12.27;7.15;;;;;;;13.24;70.57;101173.72;4989624;28;20054;-74
2022/04/13 02:24:41;;;;;;;17.63;7.53;;;;;;;13.25;70.92;101181.53;4990785;28;20018;-74
2022/04/13 02:27:10;;;;;;;12.15;6.85;;;;;;;13.18;70.84;101181.13;4990519;28;20095;-74
2022/04/13 02:29:46;;;;;;;15.95;7.50;;;;;;;13.16;70.93;101183.03;4989679;28;20026;-73
2022/04/13 02:32:11;;;;;;;13.00;7.30;;;;;;;13.13;71.08;101188.56;4998532;28;20025;-74
2022/04/13 02:34:37;;;;;;;13.45;7.13;;;;;;;13.10;71.11;101180.88;5007555;28;20064;-74
2022/04/13 02:37:02;;;;;;;14.88;7.60;;;;;;;13.07;71.50;101189.06;5009018;28;20017;-74
2022/04/13 02:39:28;;;;;;;18.48;7.55;;;;;;;12.99;71.79;101190.63;5008736;28;20117;-74
2022/04/13 02:41:53;;;;;;;12.48;7.18;;;;;;;13.02;71.47;101193.88;5005358;28;20032;-75
2022/04/13 02:44:20;;;;;;;15.82;7.85;;;;;;;12.90;72.25;101192.19;5008655;28;20026;-74
2022/04/13 02:46:45;;;;;;;18.00;7.65;;;;;;;12.92;72.42;101192.91;5008693;28;20029;-74
2022/04/13 02:49:11;;;;;;;11.65;7.18;;;;;;;12.88;72.29;101194.13;4953186;28;20047;-74
2022/04/13 02:51:37;;;;;;;13.00;7.22;;;;;;;12.82;72.72;101199.88;4966366;28;20138;-74
2022/04/13 02:54:06;;;;;;;16.33;7.45;;;;;;;12.78;73.10;101204.53;4967255;28;20031;-74
2022/04/13 02:56:31;;;;;;;13.57;7.75;;;;;;;12.76;72.68;101208.25;4966399;28;20245;-74
2022/04/13 02:58:57;;;;;;;13.60;7.47;;;;;;;12.72;73.35;101209.44;4967002;28;20129;-74
2022/04/13 03:01:24;;;;;;;16.52;8.02;;;;;;;12.66;73.19;101204.66;4951017;28;20850;-73
2022/04/13 03:03:49;;;;;;;13.38;7.28;;;;;;;12.59;73.19;101200.81;4965805;28;20459;-74
2022/04/13 03:06:15;;;;;;;12.73;7.15;;;;;;;12.53;73.44;101205.59;4966719;28;20027;-74
2022/04/13 03:08:40;;;;;;;12.02;7.30;;;;;;;12.48;73.56;101202.47;4966445;28;20046;-74
2022/04/13 03:11:08;;;;;;;12.52;7.40;;;;;;;12.45;73.68;101210.63;4967393;28;20030;-73
2022/04/13 03:13:33;;;;;;;12.05;7.30;;;;;;;12.32;74.09;101203.72;4968008;28;20054;-74
2022/04/13 03:15:59;;;;;;;10.98;6.95;;;;;;;12.28;74.21;101200.47;4968573;28;20574;-73
2022/04/13 03:18:24;;;;;;;15.68;7.97;;;;;;;12.28;74.68;101199.66;4951146;28;20650;-74
2022/04/13 03:20:49;;;;;;;11.85;7.20;;;;;;;12.25;74.91;101200.72;4999706;28;20056;-74
2022/04/13 03:23:15;;;;;;;15.77;7.65;;;;;;;12.17;74.43;101196.03;5009374;28;20466;-74
2022/04/13 03:25:40;;;;;;;13.45;7.82;;;;;;;12.14;74.87;101203.31;5008089;28;20470;-74
2022/04/13 03:28:07;;;;;;;15.88;7.68;;;;;;;12.09;75.09;101201.03;5009488;28;20474;-73
2022/04/13 03:30:32;;;;;;;10.90;7.65;;;;;;;12.05;75.32;101193.47;5009540;28;20014;-74
2022/04/13 03:32:58;;;;;;;13.25;7.68;;;;;;;12.00;75.07;101200.84;5009007;28;20048;-74
2022/04/13 03:35:23;;;;;;;14.85;7.75;;;;;;;11.97;75.39;101204.56;5009265;28;20390;-74
2022/04/13 03:37:48;;;;;;;12.85;8.60;;;;;;;11.90;75.74;101212.09;5008359;28;20406;-73
2022/04/13 03:40:15;;;;;;;14.32;7.72;;;;;;;11.83;76.11;101210.88;5008807;28;20022;-74
2022/04/13 03:42:41;;;;;;;13.52;7.68;;;;;;;11.80;76.18;101211.09;5009768;28;20030;-74
2022/04/13 03:45:09;;;;;;;14.68;8.15;;;;;;;11.72;76.66;101210.78;5009712;28;20030;-74
2022/04/13 03:47:35;;;;;;;15.05;8.57;;;;;;;11.69;76.36;101218.06;5011948;28;20025;-74
2022/04/13 03:50:01;;;;;;;13.88;7.85;;;;;;;11.67;76.58;101223.47;5011842;28;20513;-74
2022/04/13 03:52:31;;;;;;;15.95;8.52;;;;;;;11.58;77.18;101216.19;4993397;28;20018;-74
2022/04/13 03:54:57;;;;;;;15.50;7.85;;;;;;;11.52;77.08;101216.63;5011572;28;20026;-73
2022/04/13 03:57:22;;;;;;;13.45;8.75;;;;;;;11.51;77.31;101225.50;5011409;28;20120;-74
2022/04/13 03:59:47;;;;;;;13.05;8.38;;;;;;;11.46;77.20;101227.63;5010823;28;20033;-73
2022/04/13 04:02:14;;;;;;;13.38;8.65;;;;;;;11.43;77.55;101230.47;5011430;28;20040;-74
2022/04/13 04:04:42;;;;;;;15.35;9.27;;;;;;;11.32;78.22;101233.88;5010759;28;20064;-74
2022/04/13 04:07:08;;;;;;;16.35;9.18;;;;;;;11.32;78.10;101238.31;5009398;28;20042;-74
2022/04/13 04:09:34;;;;;;;13.43;8.70;;;;;;;11.27;78.44;101243.91;5010655;28;20025;-74
2022/04/13 04:11:59;;;;;;;13.13;8.60;;;;;;;11.27;78.17;101249.19;5012058;28;20103;-74
2022/04/13 04:14:25;;;;;;;16.08;9.10;;;;;;;11.22;78.05;101246.88;5010692;28;20072;-74
2022/04/13 04:16:55;;;;;;;15.80;9.43;;;;;;;11.15;78.58;101248.22;5011641;28;20108;-74
2022/04/13 04:19:20;;;;;;;15.25;9.70;;;;;;;11.12;79.07;101251.06;5012280;28;20038;-74
2022/04/13 04:21:46;;;;;;;17.33;10.30;;;;;;;11.09;79.56;101239.91;5011107;28;20493;-74
2022/04/13 04:24:11;;;;;;;16.52;10.40;;;;;;;11.10;80.00;101255.59;4994151;28;20030;-74
2022/04/13 04:26:37;;;;;;;17.55;10.70;;;;;;;11.10;80.20;101257.41;5011966;28;20101;-74
2022/04/13 04:29:02;;;;;;;25.33;11.52;;;;;;;11.08;80.26;101254.88;5011760;28;20030;-74
2022/04/13 04:34:28;;;;;;;16.13;10.57;;;;;;;11.08;80.41;101251.41;5011223;28;20080;-74
2022/04/13 04:36:54;;;;;;;17.02;11.98;;;;;;;11.08;80.39;101256.66;5011851;28;20092;-74
2022/04/13 04:39:20;;;;;;;21.98;12.00;;;;;;;11.09;81.33;101267.09;5011725;28;20703;-74
2022/04/13 04:41:47;;;;;;;18.70;12.15;;;;;;;11.04;80.85;101266.56;5011174;28;20057;-74
2022/04/13 04:44:13;;;;;;;18.70;11.43;;;;;;;11.12;80.85;101277.41;5011861;28;20048;-74
2022/04/13 04:46:38;;;;;;;18.55;12.82;;;;;;;11.11;81.85;101274.88;4993949;28;20036;-75
2022/04/13 04:49:07;;;;;;;22.05;13.30;;;;;;;11.07;81.70;101274.25;5009847;28;20021;-74
2022/04/13 04:51:32;;;;;;;18.02;12.43;;;;;;;11.15;81.64;101287.72;5010847;28;20061;-74
2022/04/13 04:54:02;;;;;;;19.67;12.85;;;;;;;11.15;81.67;101295.63;4993156;28;20057;-74
2022/04/13 04:56:28;;;;;;;21.67;14.25;;;;;;;11.17;82.11;101290.25;5008212;28;20025;-74
2022/04/13 04:58:53;;;;;;;27.00;14.27;;;;;;;11.20;82.31;101298.78;5010307;28;20056;-74
2022/04/13 05:01:19;;;;;;;24.88;14.23;;;;;;;11.21;81.74;101295.22;5010616;28;20022;-74
2022/04/13 05:03:48;;;;;;;21.73;14.23;;;;;;;11.22;82.05;101291.66;4976096;28;20022;-74
2022/04/13 05:06:20;;;;;;;21.92;15.50;;;;;;;11.22;81.95;101304.81;5010691;28;20053;-74
2022/04/13 05:08:51;;;;;;;25.10;15.80;;;;;;;11.24;81.99;101302.91;4994007;28;20030;-74
2022/04/13 05:11:17;;;;;;;23.95;15.57;;;;;;;11.27;81.46;101302.69;4992372;28;20033;-74
2022/04/13 05:13:45;;;;;;;22.83;16.30;;;;;;;11.28;82.67;101308.81;5010253;28;20025;-74
2022/04/13 05:16:18;;;;;;;25.77;15.65;;;;;;;11.29;82.22;101305.22;5010119;28;20079;-74
2022/04/13 05:18:47;;;;;;;23.45;16.45;;;;;;;11.29;82.14;101321.88;5010214;28;20587;-74
2022/04/13 05:21:13;;;;;;;25.63;15.77;;;;;;;11.30;81.68;101320.94;5010367;28;20029;-74
2022/04/13 05:23:42;;;;;;;22.60;15.55;;;;;;;11.36;81.36;101324.06;4992109;28;20030;-74
2022/04/13 05:26:08;;;;;;;24.52;16.67;;;;;;;11.40;81.80;101322.91;5000249;28;20037;-74
2022/04/13 05:28:34;;;;;;;25.60;16.67;;;;;;;11.41;82.03;101329.88;5003344;28;20033;-74
2022/04/13 05:31:00;;;;;;;23.35;16.73;;;;;;;11.43;81.90;101327.97;5010416;28;20030;-74
2022/04/13 05:33:26;;;;;;;27.42;16.70;;;;;;;11.44;82.51;101340.19;5010798;28;20386;-74
2022/04/13 05:35:51;;;;;;;25.38;17.38;;;;;;;11.44;82.11;101340.19;5010594;28;20109;-74
2022/04/13 05:38:18;;;;;;;22.83;17.27;;;;;;;11.45;82.35;101331.34;5010449;28;20021;-74
2022/04/13 05:40:44;;;;;;;23.73;18.63;;;;;;;11.49;82.96;101344.19;5010952;28;20485;-74
2022/04/13 05:43:09;;;;;;;24.67;17.63;;;;;;;11.52;82.43;101351.03;5010502;28;20030;-78
2022/04/13 05:45:34;;;;;;;24.10;18.17;;;;;;;11.55;81.27;101348.19;5009748;28;20029;-74
2022/04/13 05:48:00;;;;;;;28.08;19.33;;;;;;;11.58;82.11;101353.22;5010544;28;20113;-74
2022/04/13 05:50:25;;;;;;;31.75;19.73;;;;;;;11.62;82.92;101349.47;5010385;28;20030;-74
2022/04/13 05:52:50;;;;;;;26.08;19.33;;;;;;;11.64;82.04;101358.09;5009090;28;20173;-74
2022/04/13 05:55:15;;;;;;;27.15;19.42;;;;;;;11.67;82.27;101355.25;4992426;28;20076;-74
2022/04/13 05:57:41;;;;;;;29.58;20.42;;;;;;;11.67;83.12;101349.97;5009122;28;20057;-74
2022/04/13 06:00:12;;;;;;;28.48;20.95;;;;;;;11.74;82.76;101366.19;5008584;28;20029;-74
2022/04/13 06:02:39;;;;;;;28.77;21.02;;;;;;;11.78;82.98;101371.19;5009374;28;20633;-73
2022/04/13 06:05:06;;;;;;;28.65;22.15;;;;;;;11.83;82.72;101371.69;4992473;28;20010;-73
2022/04/13 06:07:32;;;;;;;30.92;21.38;;;;;;;11.85;82.02;101367.16;4993015;28;20026;-74
2022/04/13 06:10:01;;;;;;;30.95;21.92;;;;;;;11.93;82.88;101366.59;4991677;28;20029;-73
2022/04/13 06:12:27;;;;;;;28.33;22.17;;;;;;;11.97;82.53;101369.84;5009066;28;20030;-73
2022/04/13 06:15:06;;;;;;;29.80;22.10;;;;;;;12.02;82.70;101378.31;5008783;28;20025;-73
2022/04/13 06:17:31;;;;;;;30.80;22.08;;;;;;;12.11;82.88;101372.38;4992920;28;20030;-73
2022/04/13 06:19:56;;;;;;;31.65;22.60;;;;;;;12.17;82.05;101382.47;5008152;28;20363;-73
2022/04/13 06:22:22;;;;;;;30.15;22.30;;;;;;;12.25;82.24;101388.03;5009412;28;20064;-73
2022/04/13 06:24:51;;;;;;;29.58;21.52;;;;;;;12.27;82.19;101388.78;4992150;28;20053;-74
2022/04/13 06:27:17;;;;;;;37.78;22.17;;;;;;;12.32;81.95;101383.16;5009135;28;20029;-73
2022/04/13 06:29:42;;;;;;;28.23;22.08;;;;;;;12.38;81.78;101386.19;5009677;28;20029;-74
2022/04/13 06:32:08;;;;;;;33.38;21.65;;;;;;;12.41;81.30;101383.34;5010116;28;20029;-74
2022/04/13 06:34:37;;;;;;;33.00;21.77;;;;;;;12.44;80.87;101384.91;5009283;28;20014;-74
2022/04/13 06:37:02;;;;;;;32.20;22.15;;;;;;;12.48;81.38;101391.66;5009700;28;20029;-75
2022/04/13 06:39:28;;;;;;;31.42;22.30;;;;;;;12.49;81.02;101393.34;4991111;28;20104;-72
2022/04/13 06:41:53;;;;;;;29.50;22.38;;;;;;;12.57;80.79;101395.41;5009092;28;20026;-73
2022/04/13 06:44:18;;;;;;;30.92;22.20;;;;;;;12.59;80.83;101402.25;4992362;28;20029;-73
2022/04/13 06:46:45;;;;;;;31.42;21.80;;;;;;;12.62;80.59;101402.03;5009859;28;20018;-74
2022/04/13 06:49:10;;;;;;;34.47;22.20;;;;;;;12.66;80.88;101406.13;5009764;28;20030;-74
2022/04/13 06:51:35;;;;;;;30.30;21.52;;;;;;;12.70;80.54;101412.03;5009659;28;20156;-74
2022/04/13 06:54:01;;;;;;;26.95;22.05;;;;;;;12.74;80.22;101418.75;5009760;28;20496;-74
2022/04/13 06:56:28;;;;;;;33.60;21.98;;;;;;;12.80;80.85;101428.88;5008781;28;20057;-74
2022/04/13 06:58:53;;;;;;;35.30;22.75;;;;;;;12.83;80.53;101432.16;5007505;28;20305;-74
2022/04/13 07:01:19;;;;;;;31.80;22.10;;;;;;;12.88;81.09;101431.81;5008524;28;20525;-73
2022/04/13 07:03:44;;;;;;;30.08;22.08;;;;;;;12.97;80.18;101431.13;5007906;28;20109;-74
2022/04/13 07:06:09;;;;;;;26.83;22.33;;;;;;;13.04;79.96;101448.19;5008596;28;20109;-74
2022/04/13 07:08:34;;;;;;;28.70;21.63;;;;;;;13.06;79.72;101433.06;5008897;28;20128;-74
2022/04/13 07:11:00;;;;;;;36.63;23.05;;;;;;;13.09;80.23;101446.03;5007902;28;20026;-74
2022/04/13 07:13:27;;;;;;;27.80;22.20;;;;;;;13.16;80.07;101447.25;5003051;28;20018;-73
2022/04/13 07:15:52;;;;;;;32.58;22.23;;;;;;;13.21;80.36;101448.75;5007872;28;20056;-74
2022/04/13 07:18:19;;;;;;;29.67;22.17;;;;;;;13.27;80.73;101458.88;5008471;28;20048;-74
2022/04/13 07:20:49;;;;;;;32.03;22.80;;;;;;;13.30;80.63;101463.94;5010603;28;20440;-74
2022/04/13 07:23:20;;;;;;;34.15;22.35;;;;;;;13.37;80.15;101465.16;4994066;28;20474;-74
2022/04/13 07:25:45;;;;;;;34.22;21.58;;;;;;;13.43;80.33;101460.22;5012576;28;20034;-73
2022/04/13 07:28:18;;;;;;;32.28;22.05;;;;;;;13.46;80.12;101465.28;5012178;28;20381;-74
2022/04/13 07:30:43;;;;;;;30.60;22.52;;;;;;;13.54;80.86;101467.34;5011594;28;20061;-74
2022/04/13 07:33:08;;;;;;;31.00;21.02;;;;;;;13.59;80.11;101481.03;5009082;28;20049;-74
2022/04/13 07:35:33;;;;;;;35.35;21.45;;;;;;;13.63;79.34;101477.22;5012379;28;20386;-74
2022/04/13 07:38:00;;;;;;;30.83;21.58;;;;;;;13.68;79.17;101479.53;5013781;28;20072;-74
2022/04/13 07:40:26;;;;;;;30.67;21.40;;;;;;;13.71;79.33;101482.78;5012995;28;20025;-74
2022/04/13 07:42:51;;;;;;;25.40;21.15;;;;;;;13.75;79.09;101478.94;5012571;28;20037;-73
2022/04/13 07:45:17;;;;;;;28.42;21.20;;;;;;;13.80;79.29;101479.41;5011233;28;20034;-74
2022/04/13 07:47:44;;;;;;;28.17;20.83;;;;;;;13.83;79.31;101482.78;5012448;28;20034;-74
2022/04/13 07:50:13;;;;;;;29.45;20.88;;;;;;;13.90;79.63;101483.97;4994614;28;20106;-74
2022/04/13 07:52:40;;;;;;;31.23;21.23;;;;;;;13.93;79.51;101486.38;5012018;28;20489;-74
2022/04/13 07:55:07;;;;;;;30.20;20.75;;;;;;;13.98;79.47;101486.88;5012453;28;20014;-74
2022/04/13 07:57:37;;;;;;;31.27;19.92;;;;;;;14.00;79.46;101469.06;4995268;28;20054;-74
2022/04/13 08:00:09;;;;;;;26.88;19.95;;;;;;;14.07;79.14;101491.47;5012084;28;20080;-74
2022/04/13 08:02:35;;;;;;;30.02;19.45;;;;;;;14.13;78.81;101490.97;5012996;28;20109;-74
2022/04/13 08:05:01;;;;;;;29.20;20.60;;;;;;;14.24;80.05;101493.63;5012132;28;20109;-74
2022/04/13 08:07:29;;;;;;;25.77;19.75;;;;;;;14.31;78.69;101500.09;5012852;28;20025;-74
2022/04/13 08:09:55;;;;;;;27.08;19.83;;;;;;;14.43;78.52;101502.78;4994177;28;20418;-74
2022/04/13 08:12:20;;;;;;;25.75;18.00;;;;;;;14.52;78.13;101502.06;5010876;28;20025;-74
2022/04/13 08:14:46;;;;;;;27.33;17.83;;;;;;;14.59;77.35;101504.06;5010131;28;20030;-74
2022/04/13 08:17:13;;;;;;;29.55;17.05;;;;;;;14.71;77.28;101502.25;5011557;28;20034;-74
2022/04/13 08:19:43;;;;;;;25.23;17.67;;;;;;;14.84;77.49;101508.25;5010978;28;20064;-74
2022/04/13 08:22:09;;;;;;;27.95;16.75;;;;;;;14.92;76.45;101511.09;5011886;28;20065;-74
2022/04/13 08:24:35;;;;;;;21.88;15.88;;;;;;;15.03;75.88;101513.72;5011685;28;20030;-74
2022/04/13 08:27:01;;;;;;;25.98;15.02;;;;;;;15.14;75.53;101504.03;5011133;28;20034;-74
2022/04/13 08:29:26;;;;;;;21.02;14.18;;;;;;;15.24;74.74;101513.78;4993732;28;20116;-74
2022/04/13 08:31:51;;;;;;;21.05;13.35;;;;;;;15.29;73.93;101519.53;5009764;28;20042;-74
2022/04/13 08:34:17;;;;;;;21.67;12.40;;;;;;;15.35;73.43;101518.16;4992475;28;20080;-74
2022/04/13 08:36:42;;;;;;;19.25;11.85;;;;;;;15.43;72.97;101522.84;5010863;28;20076;-74
2022/04/13 08:39:13;;;;;;;22.80;12.85;;;;;;;15.49;73.24;101519.66;4977983;28;20355;-74
2022/04/13 08:41:56;;;;;;;21.85;13.95;;;;;;;15.50;73.43;101516.88;5011229;28;20429;-74
2022/04/13 08:44:42;;;;;;;23.70;13.98;;;;;;;15.55;74.11;101527.94;4994483;28;20108;-74
2022/04/13 08:47:22;;;;;;;23.88;13.85;;;;;;;15.59;73.50;101532.03;4994561;28;20038;-74
2022/04/13 08:49:49;;;;;;;23.80;13.55;;;;;;;15.64;73.74;101535.19;5011194;28;20072;-74
2022/04/13 08:52:29;;;;;;;22.35;13.80;;;;;;;15.72;72.80;101528.38;4993829;28;20105;-74
2022/04/13 08:55:08;;;;;;;22.45;14.07;;;;;;;15.80;72.94;101529.41;4993996;28;20049;-74
2022/04/13 08:57:38;;;;;;;18.80;15.18;;;;;;;15.86;72.98;101526.22;5011725;28;20441;-74
2022/04/13 09:00:11;;;;;;;21.55;13.98;;;;;;;15.95;72.76;101528.09;5011880;28;20035;-74
2022/04/13 09:03:14;;;;;;;22.83;15.20;;;;;;;16.05;72.31;101538.78;5010976;28;20049;-74
2022/04/13 09:05:44;;;;;;;18.13;14.05;;;;;;;16.06;71.14;101542.28;5010658;28;20030;-74
2022/04/13 09:08:41;;;;;;;21.88;14.35;;;;;;;16.13;71.28;101544.25;5011693;28;20045;-74
2022/04/13 09:11:07;;;;;;;17.73;14.30;;;;;;;16.10;70.73;101536.56;4993315;28;20501;-74
2022/04/13 09:13:34;;;;;;;20.33;14.98;;;;;;;16.16;71.07;101536.03;5010850;28;20033;-74
2022/04/13 09:16:02;;;;;;;21.67;15.20;;;;;;;16.17;71.26;101543.03;5008783;28;20141;-74
2022/04/13 09:18:27;;;;;;;22.77;14.75;;;;;;;16.21;71.08;101544.44;5010997;28;20088;-74
2022/04/13 09:20:54;;;;;;;20.35;14.63;;;;;;;16.28;71.26;101556.19;5010635;28;20037;-74
2022/04/13 09:23:21;;;;;;;20.15;13.25;;;;;;;16.29;70.22;101557.88;5010073;28;20052;-74
2022/04/13 09:25:48;;;;;;;18.55;13.30;;;;;;;16.35;70.21;101560.97;5010040;28;20030;-74
2022/04/13 09:28:14;;;;;;;19.35;13.13;;;;;;;16.38;69.99;101566.84;5011597;28;20084;-74
2022/04/13 09:30:41;;;;;;;17.38;14.07;;;;;;;16.42;69.70;101562.16;5009356;28;20414;-74
2022/04/13 09:33:07;;;;;;;19.17;14.13;;;;;;;16.49;69.77;101568.59;4993239;28;20030;-74
2022/04/13 09:35:35;;;;;;;21.17;13.63;;;;;;;16.51;70.51;101577.28;5012457;28;20099;-74
2022/04/13 09:38:09;;;;;;;19.08;13.75;;;;;;;16.53;69.99;101585.97;5011240;28;20105;-74
2022/04/13 09:40:40;;;;;;;20.25;12.93;;;;;;;16.55;70.06;101584.84;5011403;28;20026;-74
2022/04/13 09:43:10;;;;;;;23.20;16.55;;;;;;;16.58;68.77;101581.06;5013292;28;20417;-74
2022/04/13 09:45:37;;;;;;;25.35;16.77;;;;;;;16.59;68.77;101585.41;5014560;28;20034;-73
2022/04/13 09:48:08;;;;;;;20.48;14.73;;;;;;;16.58;68.85;101591.72;5012675;28;20026;-73
2022/04/13 09:50:37;;;;;;;22.30;15.15;;;;;;;16.61;68.50;101591.44;5011528;28;20038;-74
2022/04/13 09:53:06;;;;;;;20.38;15.20;;;;;;;16.56;69.18;101594.50;5013930;28;20577;-73
2022/04/13 09:55:42;;;;;;;25.60;15.48;;;;;;;16.59;68.96;101585.41;5010867;28;20466;-73
2022/04/13 09:58:24;;;;;;;24.05;16.55;;;;;;;16.60;68.99;101593.25;5004121;28;20057;-75
2022/04/13 10:00:53;;;;;;;22.58;16.90;;;;;;;16.58;69.00;101584.56;5012088;28;20033;-74
2022/04/13 10:03:20;;;;;;;22.75;16.50;;;;;;;16.53;69.40;101580.66;5011519;28;20036;-74
2022/04/13 10:05:49;;;;;;;22.45;16.40;;;;;;;16.57;69.12;101590.03;5009875;28;20389;-74
2022/04/13 10:08:15;;;;;;;23.88;16.70;;;;;;;16.51;69.01;101588.75;5010777;28;20032;-73
2022/04/13 10:10:45;;;;;;;19.52;16.48;;;;;;;16.51;69.70;101598.53;5009173;28;20059;-72
2022/04/13 10:13:13;;;;;;;21.52;15.98;;;;;;;16.52;69.32;101594.91;5009032;28;20211;-74
2022/04/13 10:15:41;;;;;;;21.77;16.25;;;;;;;16.49;70.04;101592.50;5010290;28;20091;-74
2022/04/13 10:18:08;;;;;;;19.20;15.55;;;;;;;16.46;69.60;101592.78;5010389;28;20567;-74
2022/04/13 10:20:46;;;;;;;20.35;15.35;;;;;;;16.49;70.01;101597.81;5009459;28;20030;-74
2022/04/13 10:23:13;;;;;;;18.85;15.43;;;;;;;16.44;70.01;101592.06;5010040;28;20113;-74
2022/04/13 10:25:43;;;;;;;19.65;14.98;;;;;;;16.39;70.03;101595.09;5009214;28;20030;-75
2022/04/13 10:28:12;;;;;;;18.80;15.18;;;;;;;16.37;70.16;101589.09;5010347;28;20033;-75
2022/04/13 10:30:39;;;;;;;19.20;15.63;;;;;;;16.35;69.94;101587.53;5010170;28;20010;-75
2022/04/13 10:33:13;;;;;;;21.20;15.30;;;;;;;16.35;70.44;101590.19;5008648;28;20057;-74
2022/04/13 10:35:41;;;;;;;21.38;16.90;;;;;;;16.34;70.43;101605.28;4991995;28;20034;-75
2022/04/13 10:38:07;;;;;;;22.27;16.15;;;;;;;16.30;70.98;101595.91;5009453;28;20026;-75
2022/04/13 10:40:35;;;;;;;25.13;17.42;;;;;;;16.27;71.48;101607.63;5011287;28;20076;-75
2022/04/13 10:43:06;;;;;;;24.13;19.00;;;;;;;16.29;71.04;101611.00;5010941;28;20030;-75
2022/04/13 10:45:38;;;;;;;26.25;19.15;;;;;;;16.25;71.05;101604.28;5010770;28;20032;-75
2022/04/13 10:48:09;;;;;;;22.35;18.23;;;;;;;16.28;71.70;101603.16;4991457;28;20041;-74
2022/04/13 10:51:08;;;;;;;22.05;18.33;;;;;;;16.33;71.38;101608.91;5010059;28;20026;-75
2022/04/13 10:53:38;;;;;;;23.88;20.60;;;;;;;16.24;72.50;101610.56;4996912;28;20032;-75
2022/04/13 10:56:20;;;;;;;25.92;20.45;;;;;;;16.23;72.68;101616.84;5012063;28;20029;-75
2022/04/13 10:59:06;;;;;;;27.63;23.05;;;;;;;16.25;73.23;101625.50;5013818;28;20077;-75
2022/04/13 11:01:41;;;;;;;29.40;23.17;;;;;;;16.19;73.73;101643.78;4999683;28;20422;-75
2022/04/13 11:04:07;;;;;;;24.30;21.73;;;;;;;16.18;73.42;101645.59;5013541;28;20439;-75
2022/04/13 11:06:35;;;;;;;30.92;24.48;;;;;;;16.10;73.28;101632.16;5013854;28;20021;-74
2022/04/13 11:09:22;;;;;;;31.15;22.67;;;;;;;16.10;72.63;101631.31;5014462;28;20037;-75
2022/04/13 11:11:49;;;;;;;27.92;24.50;;;;;;;16.04;73.46;101635.31;5013370;28;20030;-75
2022/04/13 11:14:21;;;;;;;27.35;24.40;;;;;;;16.00;73.70;101625.91;5012997;28;20018;-75
2022/04/13 11:16:51;;;;;;;30.38;24.63;;;;;;;15.96;74.34;101635.94;4994417;28;20034;-75
2022/04/13 11:19:18;;;;;;;32.20;24.98;;;;;;;15.96;74.36;101632.44;5004962;28;20033;-75